Nearby METAR Reports

 

KMQS - Coatesville, Pennsylvania, USA
Distance from station: ENE 6mi, 10km
Updated: Mon, 16-Jul-2018 6:15am EDT
Fog, Mostly cloudy
Fog, Mostly cloudy
 Wind from SW
Wind: SW 5 mph , 7 km/h
Temperature: 70°F , 21°C
Dew Point: 70°F , 21°C
Humidity: 100%
Barometer: 30.03 inHg , 1016.9 hPa
Summary: Fog
Clouds: Mostly cloudy
Visibility: less than 1/4 mile , 0.4 km
Cloud details: Mostly cloudy 100 ft
Mostly cloudy 1300 ft
2018/07/16 10:15 KMQS 161015Z AUTO 23004KT M1/4SM FG BKN001 BKN013 21/21 A3003 RMK AO2
KLNS - Lancaster, Pennsylvania, USA
Distance from station: NW 21mi, 33km
Updated: Mon, 16-Jul-2018 6:28am EDT
Mist, Clear
Mist, Clear
 Wind from calm
Wind: Calm
Temperature: 72°F , 22°C
Dew Point: 72°F , 22°C
Humidity: 100%
Barometer: 30.00 inHg , 1015.9 hPa
Summary: Mist
Clouds: Clear
Visibility: 3 miles , 5 km
2018/07/16 10:28 KLNS 161028Z 00000KT 3SM BR CLR 22/22 A3000 RMK AO2 T02220217
 
KILG - Wilmington, Delaware, USA
Distance from station: SE 28mi, 45km
Updated: Mon, 16-Jul-2018 6:19am EDT
Mist, Clear
Mist, Clear
 Wind from calm
Wind: Calm
Temperature: 72°F , 22°C
Dew Point: 70°F , 21°C
Humidity: 94%
Barometer: 30.00 inHg , 1015.9 hPa
Summary: Mist
Clouds: Clear
Visibility: 4 miles , 6 km
2018/07/16 10:19 KILG 161019Z 00000KT 4SM BR CLR 22/21 A3000 RMK AO2 T02170211
KRDG - Reading, Pennsylvania, USA
Distance from station: N 29mi, 47km
Updated: Mon, 16-Jul-2018 5:54am EDT
Clear
Clear
 Wind from calm
Wind: Calm
Temperature: 72°F , 22°C
Dew Point: 72°F , 22°C
Humidity: 100%
Barometer: 29.99 inHg , 1015.6 hPa
Clouds: Clear
Visibility: 10 miles , 16 km
2018/07/16 09:54 KRDG 160954Z 00000KT 10SM CLR 22/22 A2999 RMK AO2 SLP158 T02220217
 
KPTW - Pottstown, Pennsylvania, USA
Distance from station: NE 30mi, 48km
Updated: Mon, 16-Jul-2018 6:16am EDT
Mist, Few clouds
Mist, Few clouds
 Wind from calm
Wind: Calm
Temperature: 70°F , 21°C
Dew Point: 70°F , 21°C
Humidity: 100%
Barometer: 30.02 inHg , 1016.6 hPa
Summary: Mist
Clouds: Few Clouds
Visibility: 3 miles , 5 km
Cloud details: Few Clouds 4500 ft
Few Clouds 6500 ft
2018/07/16 10:16 KPTW 161016Z AUTO 00000KT 3SM BR FEW045 FEW065 21/21 A3002 RMK AO2 T02060206